AirNav   Air Wisconsin pilot careers
 
 973 users online  

53OI Metro Health Medical Center Heliport
Cleveland, Ohio, USA

GOING TO CLEVELAND?


FAA INFORMATION EFFECTIVE 31 JANUARY 2019

Location

FAA Identifier: 53OI
Lat/Long: 41-27-38.2807N / 081-41-51.4721W
41-27.638012N / 081-41.857868W
41.4606335 / -81.6976311
(estimated)
Elevation: 735 ft. / 224 m (estimated)
Variation: 07W (1980)
From city: 2 miles S of CLEVELAND, OH
Time zone: UTC -5 (UTC -4 during Daylight Saving Time)
Zip code: 44109

Heliport Operations

Heliport use: Private use, MEDICAL USE.
Activation date: 11/1986
Control tower: no
ARTCC: CLEVELAND CENTER
FSS: CLEVELAND FLIGHT SERVICE STATION
Attendance: CONTINUOUS
Wind indicator: lighted
Segmented circle: no
Lights: SS-SR
Beacon: white-green-yellow (heliport)
Operates sunset to sunrise.

Heliport Communications

WX ASOS at BKL (3 nm N): 125.25 (216-241-6904)
WX ASOS at CLE (8 nm SW): PHONE 216-267-9955
WX AWOS-3 at CGF (11 nm NE): 119.950 (216-289-4113)
WX AWOS-3PT at LNN (19 nm NE): 119.225 (440-942-0809)
  • 123.025.

Nearby radio navigation aids

VOR radial/distance  VOR name  Freq  Var
DJBr079/21.8DRYER VOR/DME113.6005W
CXRr267/24.3CHARDON VOR/DME112.7005W
ACOr317/30.8AKRON VOR/DME114.4004W

 
NDB name  Hdg/Dist  Freq  Var  ID
LAKELAND235/19.526308WLQL .-.. --.- .-..

Heliport Services

Runway Information

Helipad H1

Dimensions: 50 x 175 ft. / 15 x 53 m
Surface: concrete
ROOFTOP. HELIPORT WITH ONE TAKE-OFF AND LANDING SPOT AND TWO PARKING SPOTS.
Weight bearing capacity: 
Single wheel: 14 AUW
Traffic pattern: leftleft

Heliport Ownership and Management from official FAA records

Ownership: Privately-owned
Owner: METRO HEALTH SYSTEMS
2500 METRO HEALTH DR.
CLEVELAND, OH 44109
Phone (216) 778-3090
Manager: BRIAN CARR
2500 METRO HEALTH DR.
CLEVELAND, OH 44109
Phone (800) 255-2229

Instrument Procedures

There are no published instrument procedures at 53OI.

Some nearby airports with instrument procedures:

KBKL - Burke Lakefront Airport (3 nm N)
KCLE - Cleveland-Hopkins International Airport (8 nm SW)
KCGF - Cuyahoga County Airport (11 nm NE)
KLNN - Willoughby Lost Nation Municipal Airport (19 nm NE)
1G1 - Elyria Airport (20 nm SW)
1G5 - Medina Municipal Airport (20 nm S)
 
Loc | Ops | Rwys | IFR | FBO | Links
Com | Nav | Svcs | Stats | Notes
Area around 53OI (Metro Health Medical Center Heliport)
 
Road maps at: MapQuest Bing Google
 
Aerial photo
No photo
 
Sectional chart

 
Airport distance calculator
Flying to Metro Health Medical Center Heliport? Find the distance to fly.

From to 53OI

Sunrise and sunset
Times for 16-Feb-2019
 Local
(UTC-5)
 Zulu
(UTC)
Morning civil twilight06:5311:53
Sunrise07:2212:22
Sunset18:0023:00
Evening civil twilight18:2923:29

Current date and time
Zulu (UTC)  16-Feb-2019 18:44:45
Local (UTC-5)  16-Feb-2019 13:44:45
 
METAR
KBKL 
5nm N 
161753Z 35005KT 9SM -SN OVC022 M03/M08 A3006 RMK AO2 SLP189 P0000 60000 T10281078 11028 21033 58004
KCLE 
7nm W 
161751Z 03005KT 10SM OVC018 M03/M08 A3008 RMK AO2 SLP198 60000 T10331078 11028 21044 58004
KCGF 
12nm NE 
161745Z 25004KT 10SM OVC015 M04/M08 A3006
KLNN 
19nm NE 
161835Z AUTO 30003KT 10SM BKN015 OVC021 M03/M08 A3007 RMK AO1 T10351079
TAF
KCLE 
7nm W 
161745Z 1618/1724 36006KT P6SM OVC018 FM170800 06004KT P6SM SCT025 BKN035 FM171700 07007KT 6SM -SN BKN035 OVC140 FM172000 07008KT 4SM -SN BKN020 OVC050 FM172200 06008KT 2SM -SN OVC010
NOTAMs
Click for the latest NOTAMs
NOTAMs are issued by the DoD/FAA and will open in a separate window not controlled by AirNav.

 

 
 

Would you like to see your business listed on this page?

 If your business provides an interesting product or service to pilots, flight crews, aircraft, or users of the Metro Health Medical Center Heliport, you should consider listing it here.  To start the listing process, click on the button below
 
Add a business
 

Other Pages about Metro Health Medical Center Heliport

Update a link
 
Copyright © AirNav, LLC. All rights reserved. Privacy Policy  Contact